createdAt,value
2017-09-11T00:00:30.663Z,15.27
2017-09-11T00:01:53.151Z,15.13
2017-09-11T00:03:15.283Z,15.23
2017-09-11T00:04:36.838Z,15.25
2017-09-11T00:05:58.985Z,15.14
2017-09-11T00:07:21.425Z,15.27
2017-09-11T00:08:43.557Z,15.19
2017-09-11T00:10:05.712Z,15.2
2017-09-11T00:11:27.532Z,15.17
2017-09-11T00:12:49.684Z,15.19
2017-09-11T00:14:11.813Z,15.29
2017-09-11T00:15:33.640Z,15.17
2017-09-11T00:16:55.459Z,15.23
2017-09-11T00:18:17.605Z,15.23
2017-09-11T00:19:39.093Z,15.19
2017-09-11T00:21:01.564Z,15.27
2017-09-11T00:22:24.006Z,15.2
2017-09-11T00:23:45.958Z,15.19
2017-09-11T00:25:07.759Z,15.21
2017-09-11T00:26:29.598Z,15.16
2017-09-11T00:27:51.435Z,15.23
2017-09-11T00:29:14.133Z,15.21
2017-09-11T00:30:36.064Z,15.2
2017-09-11T00:31:58.192Z,15.14
2017-09-11T00:33:20.743Z,15.2
2017-09-11T00:34:42.793Z,15.2
2017-09-11T00:36:04.634Z,15.13
2017-09-11T00:37:26.436Z,15.17
2017-09-11T00:38:48.235Z,15.19
2017-09-11T00:40:10.734Z,15.17
2017-09-11T00:41:32.995Z,15.16
2017-09-11T00:42:55.114Z,15.09
2017-09-11T00:44:17.320Z,15.14
2017-09-11T00:45:39.727Z,15.06
2017-09-11T00:47:02.316Z,15.11
2017-09-11T00:48:24.115Z,15.1
2017-09-11T00:49:45.604Z,15.09
2017-09-11T00:51:07.774Z,15.09
2017-09-11T00:52:29.894Z,15.09
2017-09-11T00:53:51.719Z,15.11
2017-09-11T00:55:13.216Z,15.11
2017-09-11T00:56:35.294Z,15.01
2017-09-11T00:57:57.424Z,15.01
2017-09-11T00:59:19.675Z,14.92
2017-09-11T01:00:42.128Z,14.95
2017-09-11T01:02:04.514Z,14.91
2017-09-11T01:03:26.324Z,14.88
2017-09-11T01:04:48.443Z,14.8
2017-09-11T01:06:10.263Z,14.75
2017-09-11T01:07:32.103Z,14.68
2017-09-11T01:08:53.911Z,14.72
2017-09-11T01:10:15.704Z,14.68
2017-09-11T01:11:37.563Z,14.7
2017-09-11T01:12:59.723Z,14.65
2017-09-11T01:14:21.534Z,14.72
2017-09-11T01:15:43.335Z,14.62
2017-09-11T01:17:05.442Z,14.57
2017-09-11T01:18:27.228Z,14.6
2017-09-11T01:19:49.818Z,14.57
2017-09-11T01:21:11.991Z,14.51
2017-09-11T01:22:34.219Z,14.51
2017-09-11T01:23:57.024Z,14.51
2017-09-11T01:25:19.143Z,14.57
2017-09-11T01:26:41.294Z,14.5
2017-09-11T01:28:03.113Z,14.55
2017-09-11T01:29:25.608Z,14.51
2017-09-11T01:30:47.259Z,14.51
2017-09-11T01:32:09.392Z,14.54
2017-09-11T01:33:31.282Z,14.52
2017-09-11T01:34:53.114Z,14.43
2017-09-11T01:36:14.918Z,14.4
2017-09-11T01:37:35.764Z,14.4
2017-09-11T01:38:57.684Z,14.47
2017-09-11T01:40:20.493Z,14.46
2017-09-11T01:41:42.322Z,14.54
2017-09-11T01:43:04.769Z,14.55
2017-09-11T01:44:26.974Z,14.57
2017-09-11T01:45:48.861Z,14.68
2017-09-11T01:47:10.683Z,14.72
2017-09-11T01:48:32.523Z,14.69
2017-09-11T01:49:54.364Z,14.73
2017-09-11T01:51:16.873Z,14.72
2017-09-11T01:52:38.042Z,14.8
2017-09-11T01:54:00.603Z,14.8
2017-09-11T01:55:22.865Z,14.8
2017-09-11T01:56:45.249Z,14.84
2017-09-11T01:58:07.092Z,14.84
2017-09-11T01:59:29.553Z,14.96
2017-09-11T02:00:51.369Z,14.96
2017-09-11T02:02:13.133Z,14.96
2017-09-11T02:03:33.994Z,15.07
2017-09-11T02:04:56.104Z,15.06
2017-09-11T02:06:17.912Z,14.98
2017-09-11T02:07:40.424Z,15.06
2017-09-11T02:09:02.614Z,15.07
2017-09-11T02:10:24.753Z,15.11
2017-09-11T02:11:46.903Z,15.17
2017-09-11T02:13:09.074Z,15.17
2017-09-11T02:14:30.573Z,15.11
2017-09-11T02:15:52.711Z,15.2
2017-09-11T02:17:15.201Z,15.17
2017-09-11T02:18:38.015Z,15.27
2017-09-11T02:19:59.843Z,15.16
2017-09-11T02:21:21.341Z,15.27
2017-09-11T02:22:43.477Z,15.29
2017-09-11T02:24:05.544Z,15.32
2017-09-11T02:25:27.023Z,15.29
2017-09-11T02:26:48.195Z,15.34
2017-09-11T02:28:10.355Z,15.34
2017-09-11T02:29:33.264Z,15.27
2017-09-11T02:30:55.224Z,15.35
2017-09-11T02:32:17.685Z,15.43
2017-09-11T02:33:39.194Z,15.39
2017-09-11T02:35:01.264Z,15.46
2017-09-11T02:36:23.074Z,15.47
2017-09-11T02:37:45.015Z,15.46
2017-09-11T02:39:07.175Z,15.56
2017-09-11T02:40:29.345Z,15.46
2017-09-11T02:41:51.482Z,15.51
2017-09-11T02:43:12.974Z,15.5
2017-09-11T02:44:34.455Z,15.51
2017-09-11T02:45:56.868Z,15.54
2017-09-11T02:47:19.011Z,15.49
2017-09-11T02:48:41.475Z,15.57
2017-09-11T02:50:03.625Z,15.54
2017-09-11T02:51:25.525Z,15.56
2017-09-11T02:52:47.024Z,15.54
2017-09-11T02:54:08.949Z,15.54
2017-09-11T02:55:31.105Z,15.5
2017-09-11T02:56:53.213Z,15.49
2017-09-11T02:58:15.008Z,15.53
2017-09-11T02:59:37.138Z,15.44
2017-09-11T03:00:59.283Z,15.51
2017-09-11T03:02:20.485Z,15.54
2017-09-11T03:03:41.976Z,15.47
2017-09-11T03:05:04.434Z,15.47
2017-09-11T03:06:26.274Z,15.5
2017-09-11T03:07:48.505Z,15.5
2017-09-11T03:09:10.665Z,15.53
2017-09-11T03:10:32.200Z,15.56
2017-09-11T03:11:54.024Z,15.51
2017-09-11T03:13:16.553Z,15.49
2017-09-11T03:14:38.707Z,15.53
2017-09-11T03:16:00.856Z,15.49
2017-09-11T03:17:22.992Z,15.47
2017-09-11T03:18:45.155Z,15.49
2017-09-11T03:20:06.984Z,15.53
2017-09-11T03:21:29.434Z,15.44
2017-09-11T03:22:51.566Z,15.59
2017-09-11T03:24:13.672Z,15.57
2017-09-11T03:25:35.184Z,15.54
2017-09-11T03:26:57.674Z,15.56
2017-09-11T03:28:19.152Z,15.54
2017-09-11T03:29:41.963Z,15.56
2017-09-11T03:31:03.763Z,15.59
2017-09-11T03:32:24.952Z,15.59
2017-09-11T03:33:47.104Z,15.57
2017-09-11T03:35:09.473Z,15.59
2017-09-11T03:36:31.292Z,15.56
2017-09-11T03:37:53.459Z,15.54
2017-09-11T03:39:15.582Z,15.57
2017-09-11T03:40:38.076Z,15.64
2017-09-11T03:42:00.518Z,15.5
2017-09-11T03:43:22.004Z,15.57
2017-09-11T03:44:44.333Z,15.62
2017-09-11T03:46:06.183Z,15.56
2017-09-11T03:47:28.725Z,15.47
2017-09-11T03:48:50.897Z,15.49
2017-09-11T03:50:12.386Z,15.44
2017-09-11T03:51:33.841Z,15.49
2017-09-11T03:52:55.023Z,15.56
2017-09-11T03:54:17.156Z,15.49
2017-09-11T03:55:39.282Z,15.6
2017-09-11T03:57:02.081Z,15.59
2017-09-11T03:58:23.659Z,15.53
2017-09-11T03:59:45.132Z,15.57
2017-09-11T04:01:07.258Z,15.5
2017-09-11T04:02:29.652Z,15.49
2017-09-11T04:03:51.882Z,15.54
2017-09-11T04:05:14.343Z,15.53
2017-09-11T04:06:36.487Z,15.57
2017-09-11T04:07:59.292Z,15.59
2017-09-11T04:09:21.112Z,15.47
2017-09-11T04:10:43.023Z,15.46
2017-09-11T04:12:04.842Z,15.51
2017-09-11T04:13:27.068Z,15.49
2017-09-11T04:14:49.546Z,15.59
2017-09-11T04:16:12.014Z,15.57
2017-09-11T04:17:33.832Z,15.53
2017-09-11T04:18:55.682Z,15.54
2017-09-11T04:20:17.503Z,15.51
2017-09-11T04:21:39.787Z,15.51
2017-09-11T04:23:01.922Z,15.5
2017-09-11T04:24:23.769Z,15.49
2017-09-11T04:25:45.602Z,15.47
2017-09-11T04:27:08.082Z,15.56
2017-09-11T04:28:29.902Z,15.54
2017-09-11T04:29:52.012Z,15.57
2017-09-11T04:31:13.838Z,15.51
2017-09-11T04:32:35.989Z,15.51
2017-09-11T04:33:58.133Z,15.54
2017-09-11T04:35:20.610Z,15.41
2017-09-11T04:36:42.431Z,15.56
2017-09-11T04:38:04.580Z,15.47
2017-09-11T04:39:27.042Z,15.51
2017-09-11T04:40:49.032Z,15.51
2017-09-11T04:42:11.172Z,15.56
2017-09-11T04:43:33.312Z,15.59
2017-09-11T04:44:55.574Z,15.57
2017-09-11T04:46:18.066Z,15.46
2017-09-11T04:47:40.663Z,15.44
2017-09-11T04:49:02.803Z,15.6
2017-09-11T04:50:23.983Z,15.47
2017-09-11T04:51:45.832Z,15.5
2017-09-11T04:53:07.321Z,15.5
2017-09-11T04:54:30.112Z,15.51
2017-09-11T04:55:52.697Z,15.47
2017-09-11T04:57:14.853Z,15.59
2017-09-11T04:58:36.399Z,15.53
2017-09-11T04:59:58.631Z,15.47
2017-09-11T05:01:20.825Z,15.39
2017-09-11T05:02:43.034Z,15.5
2017-09-11T05:04:05.492Z,15.44
2017-09-11T05:05:27.318Z,15.41
2017-09-11T05:06:49.457Z,15.39
2017-09-11T05:08:11.641Z,15.36
2017-09-11T05:09:33.792Z,15.35
2017-09-11T05:10:56.321Z,15.39
2017-09-11T05:12:18.491Z,15.39
2017-09-11T05:13:40.779Z,15.46
2017-09-11T05:15:02.923Z,15.47
2017-09-11T05:16:24.748Z,15.46
2017-09-11T05:17:46.633Z,15.54
2017-09-11T05:19:08.437Z,15.47
2017-09-11T05:20:30.587Z,15.47
2017-09-11T05:21:52.728Z,15.46
2017-09-11T05:23:15.189Z,15.38
2017-09-11T05:24:37.664Z,15.43
2017-09-11T05:25:59.605Z,15.38
2017-09-11T05:27:21.723Z,15.29
2017-09-11T05:28:43.543Z,15.31
2017-09-11T05:30:06.042Z,15.32
2017-09-11T05:31:28.182Z,15.32
2017-09-11T05:32:50.414Z,15.29
2017-09-11T05:34:12.562Z,15.38
2017-09-11T05:35:35.041Z,15.38
2017-09-11T05:36:56.872Z,15.28
2017-09-11T05:38:19.336Z,15.28
2017-09-11T05:39:41.492Z,15.28
2017-09-11T05:41:03.982Z,15.32
2017-09-11T05:42:25.533Z,15.32
2017-09-11T05:43:47.357Z,15.2
2017-09-11T05:45:08.853Z,15.25
2017-09-11T05:46:31.683Z,15.32
2017-09-11T05:47:54.162Z,15.35
2017-09-11T05:49:15.992Z,15.29
2017-09-11T05:50:38.492Z,15.31
2017-09-11T05:52:01.300Z,15.36
2017-09-11T05:53:23.584Z,15.36
2017-09-11T05:54:46.037Z,15.39
2017-09-11T05:56:07.224Z,15.39
2017-09-11T05:57:30.038Z,15.44
2017-09-11T05:58:51.954Z,15.57
2017-09-11T06:00:13.777Z,15.46
2017-09-11T06:01:36.242Z,15.49
2017-09-11T06:02:58.192Z,15.59
2017-09-11T06:04:19.676Z,15.57
2017-09-11T06:05:40.908Z,15.49
2017-09-11T06:07:03.092Z,15.49
2017-09-11T06:08:25.814Z,15.57
2017-09-11T06:09:48.308Z,15.64
2017-09-11T06:11:10.203Z,15.62
2017-09-11T06:12:32.731Z,15.6
2017-09-11T06:13:54.919Z,15.5
2017-09-11T06:15:16.779Z,15.6
2017-09-11T06:16:39.030Z,15.46
2017-09-11T06:18:01.183Z,15.44
2017-09-11T06:19:23.672Z,15.47
2017-09-11T06:20:45.167Z,15.38
2017-09-11T06:22:06.990Z,15.27
2017-09-11T06:23:29.275Z,15.36
2017-09-11T06:24:51.671Z,15.41
2017-09-11T06:26:13.263Z,15.59
2017-09-11T06:27:35.402Z,15.72
2017-09-11T06:28:57.528Z,15.86
2017-09-11T06:30:20.183Z,16
2017-09-11T06:31:42.337Z,16.09
2017-09-11T06:33:04.138Z,16.91
2017-09-11T06:34:26.313Z,17.64
2017-09-11T06:35:48.154Z,17.71
2017-09-11T06:37:09.419Z,17.41
2017-09-11T06:38:31.252Z,17.46
2017-09-11T06:39:53.081Z,17.44
2017-09-11T06:41:15.628Z,17.22
2017-09-11T06:42:38.141Z,17.31
2017-09-11T06:44:00.176Z,17.54
2017-09-11T06:45:22.629Z,17.96
2017-09-11T06:46:45.448Z,18.44
2017-09-11T06:48:07.283Z,18.88
2017-09-11T06:49:29.732Z,19.39
2017-09-11T06:50:51.713Z,19.21
2017-09-11T06:52:14.194Z,19.48
2017-09-11T06:53:35.812Z,19.32
2017-09-11T06:54:57.311Z,19.88
2017-09-11T06:56:18.816Z,19.8
2017-09-11T06:57:41.013Z,19.32
2017-09-11T06:59:03.476Z,18.6
2017-09-11T07:00:25.641Z,18.23
2017-09-11T07:01:46.911Z,19.32
2017-09-11T07:03:09.034Z,20.24
2017-09-11T07:04:30.907Z,21.17
2017-09-11T07:05:52.722Z,22.07
2017-09-11T07:07:14.552Z,22.7
2017-09-11T07:08:37.306Z,23.35
2017-09-11T07:09:58.822Z,23.53
2017-09-11T07:11:20.703Z,23.27
2017-09-11T07:12:42.534Z,22.92
2017-09-11T07:14:04.978Z,22.72
2017-09-11T07:15:26.483Z,22.8
2017-09-11T07:16:48.932Z,23
2017-09-11T07:18:11.072Z,22.97
2017-09-11T07:19:33.568Z,22.18
2017-09-11T07:20:56.040Z,21.56
2017-09-11T07:22:18.511Z,22.18
2017-09-11T07:23:40.720Z,22.79
2017-09-11T07:25:03.202Z,23.76
2017-09-11T07:26:24.823Z,24.76
2017-09-11T07:27:47.350Z,25.2
2017-09-11T07:29:09.835Z,25.7
2017-09-11T07:30:32.035Z,25.35
2017-09-11T07:31:53.901Z,24.55
2017-09-11T07:33:15.405Z,23.78
2017-09-11T07:34:37.252Z,22.68
2017-09-11T07:35:59.055Z,21.91
2017-09-11T07:37:20.877Z,21.68
2017-09-11T07:38:43.473Z,21.35
2017-09-11T07:40:05.299Z,21.01
2017-09-11T07:41:27.093Z,20.24
2017-09-11T07:42:49.003Z,19.87
2017-09-11T07:44:10.559Z,19.43
2017-09-11T07:45:32.392Z,19.26
2017-09-11T07:46:55.009Z,19.31
2017-09-11T07:48:16.833Z,19.06
2017-09-11T07:49:38.983Z,19.08
2017-09-11T07:51:00.506Z,19.33
2017-09-11T07:52:22.981Z,19.61
2017-09-11T07:53:45.218Z,19.71
2017-09-11T07:55:07.399Z,19.65
2017-09-11T07:56:28.953Z,19.76
2017-09-11T07:57:51.454Z,19.71
2017-09-11T07:59:13.658Z,19.68
2017-09-11T08:00:35.785Z,19.37
2017-09-11T08:01:58.262Z,19.1
2017-09-11T08:03:20.441Z,19.08
2017-09-11T08:04:41.945Z,19.14
2017-09-11T08:06:04.434Z,19.07
2017-09-11T08:07:26.263Z,19.5
2017-09-11T08:08:48.714Z,19.78
2017-09-11T08:10:10.556Z,19.73
2017-09-11T08:11:32.382Z,19.91
2017-09-11T08:12:54.220Z,19.87
2017-09-11T08:14:16.653Z,19.78
2017-09-11T08:15:38.469Z,19.71
2017-09-11T08:17:00.590Z,19.46
2017-09-11T08:18:22.103Z,19.32
2017-09-11T08:19:44.592Z,19.11
2017-09-11T08:21:07.038Z,19.31
2017-09-11T08:22:28.932Z,19.47
2017-09-11T08:23:51.070Z,19.56
2017-09-11T08:25:12.833Z,19.84
2017-09-11T08:26:35.404Z,19.99
2017-09-11T08:27:57.532Z,19.77
2017-09-11T08:29:19.714Z,19.94
2017-09-11T08:30:42.625Z,20.31
2017-09-11T08:32:05.195Z,20.64
2017-09-11T08:33:27.337Z,20.7
2017-09-11T08:34:49.493Z,20.74
2017-09-11T08:36:11.233Z,20.29
2017-09-11T08:37:32.463Z,20.06
2017-09-11T08:38:54.294Z,19.71
2017-09-11T08:40:16.866Z,19.43
2017-09-11T08:41:38.665Z,19.44
2017-09-11T08:43:00.822Z,19.44
2017-09-11T08:44:22.969Z,19.43
2017-09-11T08:45:44.800Z,19.68
2017-09-11T08:47:07.564Z,20.11
2017-09-11T08:48:29.722Z,20.28
2017-09-11T08:49:51.859Z,20.39
2017-09-11T08:51:14.402Z,20.26
2017-09-11T08:52:36.584Z,20.31
2017-09-11T08:53:59.042Z,20.26
2017-09-11T08:55:21.214Z,20.08
2017-09-11T08:56:43.695Z,20.21
2017-09-11T08:58:06.147Z,20.18
2017-09-11T08:59:28.683Z,20.16
2017-09-11T09:00:50.223Z,20.21
2017-09-11T09:02:12.376Z,20.31
2017-09-11T09:03:35.163Z,20.76
2017-09-11T09:04:57.311Z,21.06
2017-09-11T09:06:19.142Z,21.16
2017-09-11T09:07:41.332Z,21.21
2017-09-11T09:09:03.084Z,21.31
2017-09-11T09:10:25.590Z,21.16
2017-09-11T09:11:47.426Z,21.21
2017-09-11T09:13:09.252Z,20.95
2017-09-11T09:14:31.442Z,21.01
2017-09-11T09:15:53.593Z,21.12
2017-09-11T09:17:15.743Z,21.14
2017-09-11T09:18:37.495Z,21.14
2017-09-11T09:19:59.657Z,21.27
2017-09-11T09:21:21.485Z,21.28
2017-09-11T09:22:43.660Z,21.29
2017-09-11T09:24:06.192Z,21.58
2017-09-11T09:25:29.063Z,21.84
2017-09-11T09:26:50.892Z,21.99
2017-09-11T09:28:13.102Z,22.15
2017-09-11T09:29:35.261Z,22.21
2017-09-11T09:30:57.152Z,22.47
2017-09-11T09:32:18.971Z,22.67
2017-09-11T09:33:41.113Z,22.64
2017-09-11T09:35:03.380Z,22.67
2017-09-11T09:36:25.501Z,22.62
2017-09-11T09:37:47.338Z,22.79
2017-09-11T09:39:09.601Z,22.76
2017-09-11T09:40:31.737Z,22.67
2017-09-11T09:41:54.138Z,22.62
2017-09-11T09:43:16.629Z,22.4
2017-09-11T09:44:38.793Z,22.2
2017-09-11T09:46:01.279Z,21.96
2017-09-11T09:47:23.403Z,22.05
2017-09-11T09:48:45.525Z,22.25
2017-09-11T09:50:07.705Z,22.64
2017-09-11T09:51:29.254Z,22.54
2017-09-11T09:52:51.684Z,22.45
2017-09-11T09:54:13.489Z,22.02
2017-09-11T09:55:35.631Z,21.84
2017-09-11T09:56:57.794Z,21.69
2017-09-11T09:58:20.522Z,21.77
2017-09-11T09:59:42.345Z,21.65
2017-09-11T10:01:03.892Z,21.75
2017-09-11T10:02:26.013Z,22.03
2017-09-11T10:03:48.199Z,22.14
2017-09-11T10:05:10.772Z,22.33
2017-09-11T10:06:32.673Z,22.25
2017-09-11T10:07:54.490Z,22.18
2017-09-11T10:09:16.586Z,22.46
2017-09-11T10:10:39.082Z,22.67
2017-09-11T10:12:00.899Z,22.72
2017-09-11T10:13:22.744Z,22.95
2017-09-11T10:14:45.209Z,23.09
2017-09-11T10:16:07.350Z,23.2
2017-09-11T10:17:29.492Z,23.38
2017-09-11T10:18:52.045Z,23.09
2017-09-11T10:20:14.432Z,22.88
2017-09-11T10:21:36.703Z,22.43
2017-09-11T10:22:58.530Z,22.51
2017-09-11T10:24:20.743Z,22.42
2017-09-11T10:25:42.907Z,22.57
2017-09-11T10:27:05.074Z,22.47
2017-09-11T10:28:27.553Z,22.77
2017-09-11T10:29:50.124Z,23.1
2017-09-11T10:31:12.656Z,22.68
2017-09-11T10:32:34.803Z,22.65
2017-09-11T10:33:56.312Z,22.7
2017-09-11T10:35:17.843Z,22.7
2017-09-11T10:36:40.419Z,22.72
2017-09-11T10:38:02.381Z,22.67
2017-09-11T10:39:24.850Z,22.72
2017-09-11T10:40:47.313Z,22.65
2017-09-11T10:42:09.856Z,22.9
2017-09-11T10:43:32.472Z,22.92
2017-09-11T10:44:54.372Z,23.23
2017-09-11T10:46:16.525Z,23.33
2017-09-11T10:47:39.026Z,23.48
2017-09-11T10:49:01.493Z,23.4
2017-09-11T10:50:23.794Z,23.19
2017-09-11T10:51:45.969Z,23.09
2017-09-11T10:53:08.697Z,23.1
2017-09-11T10:54:30.529Z,22.77
2017-09-11T10:55:52.684Z,22.72
2017-09-11T10:57:14.845Z,22.72
2017-09-11T10:58:37.281Z,22.62
2017-09-11T10:59:59.124Z,22.79
2017-09-11T11:01:21.324Z,22.9
2017-09-11T11:02:43.473Z,22.85
2017-09-11T11:04:06.224Z,22.76
2017-09-11T11:05:28.374Z,22.86
2017-09-11T11:06:50.528Z,22.83
2017-09-11T11:08:12.345Z,22.86
2017-09-11T11:09:35.154Z,22.55
2017-09-11T11:10:56.995Z,22.28
2017-09-11T11:12:19.133Z,22.14
2017-09-11T11:13:41.613Z,22.07
2017-09-11T11:15:03.743Z,22.2
2017-09-11T11:16:25.263Z,22.36
2017-09-11T11:17:46.776Z,22.39
2017-09-11T11:19:08.363Z,22.6
2017-09-11T11:20:29.786Z,22.67
2017-09-11T11:21:51.964Z,23.04
2017-09-11T11:23:14.114Z,23.09
2017-09-11T11:24:36.578Z,23.27
2017-09-11T11:25:58.734Z,23.43
2017-09-11T11:27:20.694Z,23.53
2017-09-11T11:28:42.524Z,23.35
2017-09-11T11:30:04.694Z,23.07
2017-09-11T11:31:27.446Z,22.98
2017-09-11T11:32:49.574Z,22.97
2017-09-11T11:34:11.684Z,23.19
2017-09-11T11:35:33.824Z,23.16
2017-09-11T11:36:56.430Z,22.94
2017-09-11T11:38:18.893Z,22.58
2017-09-11T11:39:40.735Z,22.22
2017-09-11T11:41:02.886Z,21.88
2017-09-11T11:42:25.704Z,21.52
2017-09-11T11:43:47.923Z,21.49
2017-09-11T11:45:10.090Z,21.58
2017-09-11T11:46:32.242Z,21.88
2017-09-11T11:47:54.642Z,22.02
2017-09-11T11:49:17.122Z,22.46
2017-09-11T11:50:39.280Z,22.62
2017-09-11T11:52:01.563Z,22.47
2017-09-11T11:53:23.651Z,22.3
2017-09-11T11:54:45.825Z,22.14
2017-09-11T11:56:07.692Z,22.05
2017-09-11T11:57:28.913Z,21.99
2017-09-11T11:58:51.093Z,22
2017-09-11T12:00:13.245Z,22.03
2017-09-11T12:01:35.075Z,22.1
2017-09-11T12:02:57.683Z,22.1
2017-09-11T12:04:20.097Z,21.84
2017-09-11T12:05:42.251Z,21.84
2017-09-11T12:07:04.463Z,21.84
2017-09-11T12:08:25.982Z,21.8
2017-09-11T12:09:47.767Z,21.69
2017-09-11T12:11:09.603Z,21.68
2017-09-11T12:12:32.064Z,21.67
2017-09-11T12:13:53.888Z,21.69
2017-09-11T12:15:16.393Z,21.58
2017-09-11T12:16:38.567Z,21.44
2017-09-11T12:18:00.723Z,21.46
2017-09-11T12:19:22.884Z,21.47
2017-09-11T12:20:45.705Z,21.65
2017-09-11T12:22:07.553Z,21.77
2017-09-11T12:23:29.130Z,21.96
2017-09-11T12:24:51.012Z,21.84
2017-09-11T12:26:13.722Z,21.61
2017-09-11T12:27:35.972Z,21.49
2017-09-11T12:28:58.421Z,21.32
2017-09-11T12:30:20.983Z,21.19
2017-09-11T12:31:43.435Z,21.07
2017-09-11T12:33:05.964Z,20.85
2017-09-11T12:34:28.102Z,20.79
2017-09-11T12:35:50.039Z,20.59
2017-09-11T12:37:12.761Z,20.57
2017-09-11T12:38:34.930Z,20.5
2017-09-11T12:39:57.083Z,20.41
2017-09-11T12:41:19.243Z,20.33
2017-09-11T12:42:41.684Z,20.26
2017-09-11T12:44:03.840Z,20.1
2017-09-11T12:45:25.665Z,20.21
2017-09-11T12:46:47.846Z,20.18
2017-09-11T12:48:10.243Z,20.52
2017-09-11T12:49:32.737Z,20.87
2017-09-11T12:50:54.893Z,21.01
2017-09-11T12:52:16.442Z,21.07
2017-09-11T12:53:39.333Z,20.97
2017-09-11T12:55:01.471Z,20.7
2017-09-11T12:56:23.283Z,20.5
2017-09-11T12:57:45.442Z,20.29
2017-09-11T12:59:07.863Z,20.21
2017-09-11T13:00:30.033Z,20.31
2017-09-11T13:01:52.192Z,20.36
2017-09-11T13:03:14.343Z,20.42
2017-09-11T13:04:36.555Z,20.55
2017-09-11T13:05:58.068Z,20.33
2017-09-11T13:07:19.956Z,20.31
2017-09-11T13:08:42.452Z,20.5
2017-09-11T13:10:04.619Z,20.42
2017-09-11T13:11:26.466Z,20.5
2017-09-11T13:12:48.977Z,20.51
2017-09-11T13:14:11.285Z,20.55
2017-09-11T13:15:34.188Z,20.73
2017-09-11T13:16:56.060Z,20.91
2017-09-11T13:18:18.572Z,21.16
2017-09-11T13:19:40.085Z,21.16
2017-09-11T13:21:02.222Z,20.99
2017-09-11T13:22:24.396Z,20.87
2017-09-11T13:23:46.960Z,20.61
2017-09-11T13:25:09.242Z,20.47
2017-09-11T13:26:30.997Z,20.51
2017-09-11T13:27:53.474Z,20.42
2017-09-11T13:29:15.624Z,20.43
2017-09-11T13:30:37.769Z,20.54
2017-09-11T13:32:00.175Z,20.48
2017-09-11T13:33:22.671Z,20.47
2017-09-11T13:34:44.912Z,20.32
2017-09-11T13:36:07.044Z,20.03
2017-09-11T13:37:29.815Z,19.87
2017-09-11T13:38:52.041Z,19.8
2017-09-11T13:40:14.534Z,19.76
2017-09-11T13:41:36.780Z,19.71
2017-09-11T13:42:59.044Z,19.5
2017-09-11T13:44:21.193Z,19.37
2017-09-11T13:45:43.022Z,19.06
2017-09-11T13:47:05.505Z,18.94
2017-09-11T13:48:27.693Z,18.82
2017-09-11T13:49:49.855Z,18.81
2017-09-11T13:51:12.151Z,18.75
2017-09-11T13:52:34.420Z,19.11
2017-09-11T13:53:57.232Z,19.1
2017-09-11T13:55:19.372Z,19.4
2017-09-11T13:56:41.914Z,19.56
2017-09-11T13:58:03.486Z,19.71
2017-09-11T13:59:25.862Z,19.66
2017-09-11T14:00:47.701Z,19.58
2017-09-11T14:02:10.214Z,19.62
2017-09-11T14:03:32.696Z,19.54
2017-09-11T14:04:55.452Z,19.44
2017-09-11T14:06:17.632Z,19.31
2017-09-11T14:07:39.793Z,19.32
2017-09-11T14:09:02.289Z,19.11
2017-09-11T14:10:24.693Z,19.11
2017-09-11T14:11:46.926Z,18.98
2017-09-11T14:13:08.423Z,18.82
2017-09-11T14:14:30.322Z,18.85
2017-09-11T14:15:52.481Z,18.73
2017-09-11T14:17:14.945Z,18.69
2017-09-11T14:18:37.425Z,18.66
2017-09-11T14:19:59.565Z,18.57
2017-09-11T14:21:22.026Z,18.58
2017-09-11T14:22:44.203Z,18.5
2017-09-11T14:24:06.354Z,18.33
2017-09-11T14:25:28.873Z,18.37
2017-09-11T14:26:51.412Z,18.51
2017-09-11T14:28:13.974Z,18.81
2017-09-11T14:29:36.454Z,19.22
2017-09-11T14:30:58.615Z,19.59
2017-09-11T14:32:20.762Z,20.02
2017-09-11T14:33:42.940Z,20.08
2017-09-11T14:35:05.156Z,20.08
2017-09-11T14:36:27.645Z,20.06
2017-09-11T14:37:51.039Z,19.78
2017-09-11T14:39:13.294Z,19.74
2017-09-11T14:40:35.134Z,19.71
2017-09-11T14:41:57.600Z,19.62
2017-09-11T14:43:19.683Z,19.43
2017-09-11T14:44:42.333Z,19.43
2017-09-11T14:46:04.799Z,19.41
2017-09-11T14:47:26.983Z,19.37
2017-09-11T14:48:49.057Z,19.32
2017-09-11T14:50:10.974Z,19.31
2017-09-11T14:51:33.662Z,19.25
2017-09-11T14:52:55.809Z,19.22
2017-09-11T14:54:18.581Z,19.29
2017-09-11T14:55:40.820Z,19.46
2017-09-11T14:57:03.294Z,19.46
2017-09-11T14:58:25.784Z,19.25
2017-09-11T14:59:48.613Z,19.06
2017-09-11T15:01:10.753Z,19.13
2017-09-11T15:02:32.906Z,19.07
2017-09-11T15:03:55.049Z,19.19
2017-09-11T15:05:17.624Z,19.22
2017-09-11T15:06:39.469Z,19.11
2017-09-11T15:08:01.304Z,19.08
2017-09-11T15:09:23.520Z,19.21
2017-09-11T15:10:45.571Z,19.18
2017-09-11T15:12:08.122Z,19.18
2017-09-11T15:13:30.304Z,19.21
2017-09-11T15:14:52.777Z,19.1
2017-09-11T15:16:14.876Z,19.06
2017-09-11T15:17:37.569Z,18.92
2017-09-11T15:18:59.739Z,18.75
2017-09-11T15:20:21.904Z,18.63
2017-09-11T15:21:44.824Z,18.65
2017-09-11T15:23:06.980Z,18.57
2017-09-11T15:24:28.852Z,18.62
2017-09-11T15:25:50.363Z,18.7
2017-09-11T15:27:13.181Z,18.66
2017-09-11T15:28:35.032Z,18.6
2017-09-11T15:29:57.220Z,18.44
2017-09-11T15:31:19.377Z,18.51
2017-09-11T15:32:41.562Z,18.54
2017-09-11T15:34:04.044Z,18.67
2017-09-11T15:35:25.953Z,18.76
2017-09-11T15:36:48.135Z,18.73
2017-09-11T15:38:10.275Z,18.78
2017-09-11T15:39:32.122Z,18.75
2017-09-11T15:40:54.269Z,18.66
2017-09-11T15:42:16.765Z,18.6
2017-09-11T15:43:39.504Z,18.62
2017-09-11T15:45:01.988Z,18.52
2017-09-11T15:46:24.155Z,18.62
2017-09-11T15:47:46.684Z,18.55
2017-09-11T15:49:09.106Z,18.55
2017-09-11T15:50:30.952Z,18.48
2017-09-11T15:51:52.782Z,18.47
2017-09-11T15:53:14.928Z,18.33
2017-09-11T15:54:36.152Z,18.25
2017-09-11T15:55:58.714Z,18.14
2017-09-11T15:57:20.899Z,18.17
2017-09-11T15:58:43.048Z,18.26
2017-09-11T16:00:05.884Z,18.21
2017-09-11T16:01:27.753Z,18.42
2017-09-11T16:02:49.882Z,18.66
2017-09-11T16:04:12.026Z,18.85
2017-09-11T16:05:34.875Z,19.02
2017-09-11T16:06:57.371Z,19.04
2017-09-11T16:08:19.865Z,19.06
2017-09-11T16:09:42.473Z,19.25
2017-09-11T16:11:04.983Z,19.4
2017-09-11T16:12:27.166Z,19.33
2017-09-11T16:13:48.998Z,19.33
2017-09-11T16:15:11.155Z,19.26
2017-09-11T16:16:33.354Z,19.14
2017-09-11T16:17:55.012Z,19.08
2017-09-11T16:19:17.294Z,19.1
2017-09-11T16:20:39.779Z,18.99
2017-09-11T16:22:02.495Z,18.91
2017-09-11T16:23:24.745Z,18.7
2017-09-11T16:24:47.235Z,18.57
2017-09-11T16:26:09.944Z,18.33
2017-09-11T16:27:32.589Z,18.15
2017-09-11T16:28:55.075Z,18.1
2017-09-11T16:30:17.253Z,17.99
2017-09-11T16:31:39.075Z,17.93
2017-09-11T16:33:01.645Z,17.89
2017-09-11T16:34:23.481Z,17.77
2017-09-11T16:35:45.006Z,17.68
2017-09-11T16:37:07.223Z,17.54
2017-09-11T16:38:29.318Z,17.46
2017-09-11T16:39:51.549Z,17.33
2017-09-11T16:41:13.389Z,17.21
2017-09-11T16:42:35.892Z,17.08
2017-09-11T16:43:57.794Z,17
2017-09-11T16:45:19.962Z,16.96
2017-09-11T16:46:41.813Z,16.86
2017-09-11T16:48:03.653Z,16.83
2017-09-11T16:49:26.113Z,16.67
2017-09-11T16:50:48.594Z,16.68
2017-09-11T16:52:11.124Z,16.67
2017-09-11T16:53:33.346Z,16.63
2017-09-11T16:54:55.793Z,16.5
2017-09-11T16:56:18.292Z,16.52
2017-09-11T16:57:40.565Z,16.52
2017-09-11T16:59:02.415Z,16.61
2017-09-11T17:00:24.226Z,16.67
2017-09-11T17:01:46.787Z,16.79
2017-09-11T17:03:08.613Z,16.91
2017-09-11T17:04:30.772Z,16.89
2017-09-11T17:05:53.568Z,16.98
2017-09-11T17:07:15.784Z,17.04
2017-09-11T17:08:38.282Z,17.06
2017-09-11T17:10:00.955Z,17.12
2017-09-11T17:11:23.759Z,17.15
2017-09-11T17:12:45.395Z,17.22
2017-09-11T17:14:07.696Z,17.21
2017-09-11T17:15:30.024Z,17.21
2017-09-11T17:16:52.626Z,17.23
2017-09-11T17:18:15.134Z,17.15
2017-09-11T17:19:37.775Z,17.19
2017-09-11T17:20:59.945Z,17.14
2017-09-11T17:22:22.353Z,17.04
2017-09-11T17:23:44.855Z,16.89
2017-09-11T17:25:07.370Z,16.85
2017-09-11T17:26:29.235Z,16.81
2017-09-11T17:27:51.349Z,16.7
2017-09-11T17:29:13.953Z,16.57
2017-09-11T17:30:36.457Z,16.49
2017-09-11T17:31:58.654Z,16.48
2017-09-11T17:33:20.843Z,16.56
2017-09-11T17:34:42.675Z,16.43
2017-09-11T17:36:05.272Z,16.39
2017-09-11T17:37:27.443Z,16.27
2017-09-11T17:38:49.251Z,16.3
2017-09-11T17:40:11.814Z,16.21
2017-09-11T17:41:33.981Z,16.3